Time;durP1;ratioP1;P1;durP2;ratioP2;P2;SDS_P1;SDS_P2;PMS_P1;PMS_P2;Temp;Humidity;BMP_temperature;BMP_pressure;BME280_temperature;BME280_humidity;BME280_pressure;Samples;Min_cycle;Max_cycle;Signal;HPM_P1;HPM_P2
2024/01/24 00:00:08;;;;;;;1999.90;999.90;;;7.10;99.90;;;;;;4940606;29;20043;-81
2024/01/24 00:02:34;;;;;;;1999.90;999.90;;;7.10;99.90;;;;;;4940510;28;20036;-81
2024/01/24 00:04:59;;;;;;;1999.90;999.90;;;7.10;99.90;;;;;;4959364;28;20514;-81
2024/01/24 00:07:25;;;;;;;1999.90;999.90;;;7.20;99.90;;;;;;4961980;28;20071;-81
2024/01/24 00:09:51;;;;;;;1999.90;999.90;;;7.20;99.90;;;;;;4959952;28;20040;-81
2024/01/24 00:12:16;;;;;;;1999.90;999.90;;;7.20;99.90;;;;;;4960061;28;20035;-81
2024/01/24 00:14:42;;;;;;;1999.90;999.90;;;7.20;99.90;;;;;;4959539;28;20087;-81
2024/01/24 00:17:07;;;;;;;1999.90;999.90;;;7.20;99.90;;;;;;4959503;28;20410;-81
2024/01/24 00:19:33;;;;;;;1999.90;999.90;;;7.20;99.90;;;;;;4959376;28;20035;-81
2024/01/24 00:21:59;;;;;;;1999.90;999.90;;;7.20;99.90;;;;;;4959920;28;20895;-81
2024/01/24 00:24:25;;;;;;;1999.90;999.90;;;7.20;99.90;;;;;;4959756;28;20064;-81
2024/01/24 00:26:50;;;;;;;1999.90;999.90;;;7.30;99.90;;;;;;4961232;28;20067;-82
2024/01/24 00:29:16;;;;;;;1999.90;999.90;;;7.30;99.90;;;;;;4950262;28;20518;-82
2024/01/24 00:31:41;;;;;;;1999.90;999.90;;;7.30;99.90;;;;;;4940318;28;20047;-82
2024/01/24 00:34:07;;;;;;;1999.90;999.90;;;7.30;99.90;;;;;;4941743;28;20127;-82
2024/01/24 00:36:33;;;;;;;1999.90;999.90;;;7.30;99.90;;;;;;4942140;28;20032;-81
2024/01/24 00:38:59;;;;;;;1999.90;999.90;;;7.30;99.90;;;;;;4948735;28;20039;-81
2024/01/24 00:41:25;;;;;;;1999.90;999.90;;;7.40;99.90;;;;;;4959146;28;20549;-81
2024/01/24 00:43:50;;;;;;;1999.90;999.90;;;7.40;99.90;;;;;;4961042;28;20118;-81
2024/01/24 00:46:16;;;;;;;1999.90;999.90;;;7.40;99.90;;;;;;4959814;28;20397;-81
2024/01/24 00:48:41;;;;;;;1999.90;999.90;;;7.40;99.90;;;;;;4959280;28;20046;-81
2024/01/24 00:51:07;;;;;;;1999.90;999.90;;;7.40;99.90;;;;;;4959948;28;20046;-81
2024/01/24 00:53:36;;;;;;;1999.90;999.90;;;7.50;99.90;;;;;;4956604;28;20127;-81
2024/01/24 00:56:03;;;;;;;1999.90;999.90;;;7.60;99.90;;;;;;4940530;28;20067;-83
2024/01/24 00:58:28;;;;;;;1999.90;999.90;;;7.60;99.90;;;;;;4942296;28;20042;-82
2024/01/24 01:00:55;;;;;;;1999.90;999.90;;;7.70;99.90;;;;;;4940377;28;20119;-82
2024/01/24 01:03:21;;;;;;;1999.90;999.90;;;7.80;99.90;;;;;;4940269;28;20039;-82
2024/01/24 01:05:46;;;;;;;1999.90;999.90;;;7.90;99.90;;;;;;4940883;28;20406;-83
2024/01/24 01:08:13;;;;;;;1999.90;999.90;;;8.00;99.90;;;;;;4942016;28;20036;-82
2024/01/24 01:10:38;;;;;;;1999.90;999.90;;;8.10;99.90;;;;;;4942428;28;20585;-83
2024/01/24 01:13:04;;;;;;;1999.90;999.90;;;8.20;99.90;;;;;;4940186;29;20119;-82
2024/01/24 01:15:29;;;;;;;1999.90;999.90;;;8.30;99.90;;;;;;4939235;28;20074;-82
2024/01/24 01:17:55;;;;;;;1999.90;999.90;;;8.50;99.90;;;;;;4941989;28;20024;-82
2024/01/24 01:20:21;;;;;;;1999.90;999.90;;;8.70;99.90;;;;;;4940942;28;20403;-82
2024/01/24 01:22:47;;;;;;;1999.90;999.90;;;8.90;99.90;;;;;;4942759;28;20040;-82
2024/01/24 01:25:12;;;;;;;1999.90;999.90;;;9.00;99.90;;;;;;4942672;28;20546;-82
2024/01/24 01:27:39;;;;;;;1999.90;999.90;;;9.20;99.90;;;;;;4941248;28;20064;-82
2024/01/24 01:30:05;;;;;;;1999.90;999.90;;;9.30;99.90;;;;;;4940311;28;20096;-82
2024/01/24 01:32:31;;;;;;;1999.90;999.90;;;9.30;99.90;;;;;;4939599;28;20417;-81
2024/01/24 01:34:56;;;;;;;1999.90;999.90;;;9.30;99.90;;;;;;4940037;28;20040;-83
2024/01/24 01:37:23;;;;;;;1999.90;999.90;;;9.40;99.90;;;;;;4941577;28;20062;-82
2024/01/24 01:39:49;;;;;;;1999.90;999.90;;;9.40;99.90;;;;;;4939807;28;20476;-82
2024/01/24 01:42:15;;;;;;;1999.90;999.90;;;9.50;99.90;;;;;;4939963;28;20039;-83
2024/01/24 01:44:48;;;;;;;1999.90;999.90;;;9.50;99.90;;;;;;4941720;28;20047;-82
2024/01/24 01:47:14;;;;;;;1999.90;999.90;;;9.60;99.90;;;;;;4940090;28;20039;-82
2024/01/24 01:49:43;;;;;;;1999.90;999.90;;;9.70;99.90;;;;;;4941471;28;20170;-82
2024/01/24 01:52:09;;;;;;;1999.90;999.90;;;9.70;99.90;;;;;;4939844;28;20083;-82
2024/01/24 01:54:35;;;;;;;1999.90;999.90;;;9.80;99.90;;;;;;4940828;28;20052;-81
2024/01/24 01:57:02;;;;;;;1999.90;999.90;;;9.70;99.90;;;;;;4939878;28;20084;-81
2024/01/24 01:59:28;;;;;;;1999.90;999.90;;;9.80;99.90;;;;;;4941250;28;20044;-81
2024/01/24 02:01:58;;;;;;;1999.90;999.90;;;9.70;99.90;;;;;;4941411;28;20112;-81
2024/01/24 02:04:25;;;;;;;1999.90;999.90;;;10.00;99.90;;;;;;4947357;28;20043;-81
2024/01/24 02:06:51;;;;;;;1999.90;999.90;;;9.70;99.90;;;;;;4952300;29;20036;-82
2024/01/24 02:09:16;;;;;;;1999.90;999.90;;;9.70;99.90;;;;;;4938576;28;20040;-81
2024/01/24 02:11:42;;;;;;;1999.90;999.90;;;9.70;99.90;;;;;;4938143;28;20040;-81
2024/01/24 02:14:07;;;;;;;1999.90;999.90;;;9.70;99.90;;;;;;4939522;28;20063;-81
2024/01/24 02:16:33;;;;;;;1999.90;999.90;;;9.80;99.90;;;;;;4939929;28;20032;-81
2024/01/24 02:18:58;;;;;;;1999.90;999.90;;;9.70;99.90;;;;;;4938494;28;20107;-81
2024/01/24 02:21:24;;;;;;;1999.90;999.90;;;9.70;99.90;;;;;;4939821;28;20426;-81
2024/01/24 02:23:50;;;;;;;1999.90;999.90;;;9.70;99.90;;;;;;4939696;28;20115;-81
2024/01/24 02:26:16;;;;;;;1999.90;999.90;;;9.70;99.90;;;;;;4937957;28;20036;-81
2024/01/24 02:28:42;;;;;;;1999.90;999.90;;;9.70;99.90;;;;;;4939814;28;20042;-81
2024/01/24 02:31:07;;;;;;;1999.90;999.90;;;9.60;99.90;;;;;;4940016;28;20507;-81
2024/01/24 02:33:33;;;;;;;1999.90;999.90;;;9.70;99.90;;;;;;4937583;28;20044;-81
2024/01/24 02:35:58;;;;;;;1999.90;999.90;;;9.70;99.90;;;;;;4939508;28;20047;-81
2024/01/24 02:38:24;;;;;;;1999.90;999.90;;;9.80;99.90;;;;;;4938959;28;20040;-81
2024/01/24 02:40:49;;;;;;;1999.90;999.90;;;9.70;99.90;;;;;;4939511;28;20048;-81
2024/01/24 02:43:15;;;;;;;1999.90;999.90;;;9.80;99.90;;;;;;4938191;28;20043;-81
2024/01/24 02:45:40;;;;;;;1999.90;999.90;;;9.80;99.90;;;;;;4940227;28;20036;-81
2024/01/24 02:48:06;;;;;;;1999.90;999.90;;;9.80;99.90;;;;;;4938278;28;20028;-81
2024/01/24 02:50:32;;;;;;;1999.90;999.90;;;9.80;99.90;;;;;;4940132;28;20043;-81
2024/01/24 02:52:58;;;;;;;1999.90;999.90;;;9.90;99.90;;;;;;4938213;28;20068;-81
2024/01/24 02:55:23;;;;;;;1999.90;999.90;;;10.00;99.90;;;;;;4938214;29;20040;-81
2024/01/24 02:57:49;;;;;;;1999.90;999.90;;;10.00;99.90;;;;;;4938803;29;20080;-81
2024/01/24 03:00:15;;;;;;;1999.90;999.90;;;10.00;99.90;;;;;;4938422;28;20082;-81
2024/01/24 03:02:41;;;;;;;1999.90;999.90;;;10.00;99.90;;;;;;4939043;29;20038;-81
2024/01/24 03:05:08;;;;;;;1999.90;999.90;;;10.00;99.90;;;;;;4939950;28;20502;-81
2024/01/24 03:07:38;;;;;;;1999.90;999.90;;;10.00;99.90;;;;;;4939009;28;20043;-81
2024/01/24 03:10:04;;;;;;;1999.90;999.90;;;10.00;99.90;;;;;;4938536;28;20040;-81
2024/01/24 03:12:30;;;;;;;1999.90;999.90;;;10.10;99.90;;;;;;4938646;28;20041;-81
2024/01/24 03:14:55;;;;;;;1999.90;999.90;;;10.00;99.90;;;;;;4939118;29;20036;-81
2024/01/24 03:17:21;;;;;;;1999.90;999.90;;;10.00;99.90;;;;;;4941671;28;20028;-81
2024/01/24 03:19:47;;;;;;;1999.90;999.90;;;10.00;99.90;;;;;;4944975;28;20040;-80
2024/01/24 03:22:13;;;;;;;1999.90;999.90;;;10.00;99.90;;;;;;4940770;28;20056;-81
2024/01/24 03:24:38;;;;;;;1999.90;999.90;;;10.10;99.90;;;;;;4942041;28;20130;-81
2024/01/24 03:27:04;;;;;;;1999.90;999.90;;;10.00;99.90;;;;;;4941597;28;20036;-81
2024/01/24 03:29:30;;;;;;;1999.90;999.90;;;10.00;99.90;;;;;;4940197;28;20036;-81
2024/01/24 03:31:55;;;;;;;1999.90;999.90;;;10.00;99.90;;;;;;4941325;28;20426;-81
2024/01/24 03:34:21;;;;;;;1999.90;999.90;;;10.00;99.90;;;;;;4941501;28;20505;-81
2024/01/24 03:36:47;;;;;;;1999.90;999.90;;;10.00;99.90;;;;;;4940306;28;20032;-81
2024/01/24 03:39:13;;;;;;;1999.90;999.90;;;10.00;99.90;;;;;;4939945;28;20048;-81
2024/01/24 03:41:38;;;;;;;1999.90;999.90;;;9.90;99.90;;;;;;4941747;28;20032;-81
2024/01/24 03:44:04;;;;;;;1999.90;999.90;;;9.90;99.90;;;;;;4941379;28;20044;-81
2024/01/24 03:46:30;;;;;;;1999.90;999.90;;;10.00;99.90;;;;;;4941718;28;20033;-81
2024/01/24 03:48:56;;;;;;;1999.90;999.90;;;10.00;99.90;;;;;;4941861;28;20032;-81
2024/01/24 03:51:22;;;;;;;1999.90;999.90;;;10.10;99.90;;;;;;4940058;28;20515;-81
2024/01/24 03:53:47;;;;;;;1999.90;999.90;;;10.20;99.90;;;;;;4939413;28;20139;-81
2024/01/24 03:56:13;;;;;;;1999.90;999.90;;;10.20;99.90;;;;;;4940215;29;20028;-81
2024/01/24 03:58:38;;;;;;;1999.90;999.90;;;10.20;99.90;;;;;;4941675;28;20032;-81
2024/01/24 04:01:05;;;;;;;1999.90;999.90;;;10.20;99.90;;;;;;4940140;29;20195;-81
2024/01/24 04:03:30;;;;;;;1999.90;999.90;;;10.30;99.90;;;;;;4941842;28;20036;-81
2024/01/24 04:05:56;;;;;;;1999.90;999.90;;;10.20;99.90;;;;;;4942037;28;20036;-81
2024/01/24 04:08:21;;;;;;;1999.90;999.90;;;10.10;99.90;;;;;;4940378;28;20027;-81
2024/01/24 04:10:47;;;;;;;1999.90;999.90;;;10.20;99.90;;;;;;4942352;28;20102;-81
2024/01/24 04:13:14;;;;;;;1999.90;999.90;;;10.20;99.90;;;;;;4942186;28;20036;-81
2024/01/24 04:15:39;;;;;;;1999.90;999.90;;;10.20;99.90;;;;;;4942542;28;20032;-81
2024/01/24 04:18:05;;;;;;;1999.90;999.90;;;10.20;99.90;;;;;;4941334;28;20044;-81
2024/01/24 04:20:30;;;;;;;1999.90;999.90;;;10.30;99.90;;;;;;4942429;28;20075;-81
2024/01/24 04:22:56;;;;;;;1999.90;999.90;;;10.30;99.90;;;;;;4941841;28;20429;-81
2024/01/24 04:25:21;;;;;;;1999.90;999.90;;;10.20;99.90;;;;;;4953255;28;20040;-81
2024/01/24 04:27:47;;;;;;;1999.90;999.90;;;10.20;99.90;;;;;;4942478;28;20059;-80
2024/01/24 04:30:13;;;;;;;1999.90;999.90;;;10.20;99.90;;;;;;4940123;28;20043;-81
2024/01/24 04:32:38;;;;;;;1999.90;999.90;;;10.30;99.90;;;;;;4939886;28;20055;-81
2024/01/24 04:35:04;;;;;;;1999.90;999.90;;;10.30;99.90;;;;;;4938967;28;20040;-81
2024/01/24 04:37:30;;;;;;;1999.90;999.90;;;10.40;99.90;;;;;;4940061;28;20028;-81
2024/01/24 04:39:55;;;;;;;1999.90;999.90;;;10.30;99.90;;;;;;4940011;28;20095;-81
2024/01/24 04:42:21;;;;;;;1999.90;999.90;;;10.30;99.90;;;;;;4939945;28;20174;-82
2024/01/24 04:44:47;;;;;;;1999.90;999.90;;;10.30;99.90;;;;;;4938340;28;20073;-81
2024/01/24 04:47:15;;;;;;;1999.90;999.90;;;10.40;99.90;;;;;;4938679;28;20180;-81
2024/01/24 04:49:40;;;;;;;1999.90;999.90;;;10.40;99.90;;;;;;4938933;28;20036;-81
2024/01/24 04:52:07;;;;;;;1999.90;999.90;;;10.40;99.90;;;;;;4940284;28;20032;-81
2024/01/24 04:54:36;;;;;;;1999.90;999.90;;;10.30;99.90;;;;;;4938492;28;20498;-81
2024/01/24 04:57:04;;;;;;;1999.90;999.90;;;10.30;99.90;;;;;;4940595;28;20036;-81
2024/01/24 04:59:30;;;;;;;1999.90;999.90;;;10.40;99.90;;;;;;4940763;28;20889;-81
2024/01/24 05:01:55;;;;;;;1999.90;999.90;;;10.50;99.90;;;;;;4940625;28;20047;-81
2024/01/24 05:04:21;;;;;;;1999.90;999.90;;;10.50;99.90;;;;;;4938552;28;20087;-81
2024/01/24 05:06:46;;;;;;;1999.90;999.90;;;10.50;99.90;;;;;;4940455;28;20032;-81
2024/01/24 05:09:14;;;;;;;1999.90;999.90;;;10.60;99.90;;;;;;4940313;28;20075;-81
2024/01/24 05:11:40;;;;;;;1999.90;999.90;;;10.70;99.90;;;;;;4940548;29;20024;-81
2024/01/24 05:14:06;;;;;;;1999.90;999.90;;;10.80;99.90;;;;;;4939186;28;20531;-81
2024/01/24 05:16:31;;;;;;;1999.90;999.90;;;10.80;99.90;;;;;;4939505;28;20119;-81
2024/01/24 05:18:57;;;;;;;1999.90;999.90;;;10.90;99.90;;;;;;4939237;28;20509;-82
2024/01/24 05:21:23;;;;;;;1999.90;999.90;;;10.90;99.90;;;;;;4939303;28;20028;-82
2024/01/24 05:23:50;;;;;;;1999.90;999.90;;;10.90;99.90;;;;;;4939282;28;20471;-81
2024/01/24 05:26:16;;;;;;;1999.90;999.90;;;10.90;99.90;;;;;;4939488;28;20119;-81
2024/01/24 05:28:41;;;;;;;1999.90;999.90;;;11.00;99.90;;;;;;4940602;28;20040;-81
2024/01/24 05:31:07;;;;;;;1999.90;999.90;;;11.10;99.90;;;;;;4939171;28;20124;-81
2024/01/24 05:33:33;;;;;;;1999.90;999.90;;;11.20;99.90;;;;;;4940919;28;20040;-81
2024/01/24 05:35:59;;;;;;;1999.90;999.90;;;11.20;99.90;;;;;;4941719;28;20027;-81
2024/01/24 05:38:24;;;;;;;1999.90;999.90;;;11.20;99.90;;;;;;4942136;28;20380;-81
2024/01/24 05:40:50;;;;;;;1999.90;999.90;;;11.20;99.90;;;;;;4941082;28;20525;-81
2024/01/24 05:43:15;;;;;;;1999.90;999.90;;;11.30;99.90;;;;;;4942217;28;20047;-81
2024/01/24 05:45:41;;;;;;;1999.90;999.90;;;11.30;99.90;;;;;;4944845;28;20044;-82
2024/01/24 05:48:08;;;;;;;1999.90;999.90;;;11.30;99.90;;;;;;4943481;28;20043;-81
2024/01/24 05:50:33;;;;;;;1999.90;999.90;;;11.20;99.90;;;;;;4940909;28;20491;-81
2024/01/24 05:52:59;;;;;;;1999.90;999.90;;;11.30;99.90;;;;;;4940960;28;20096;-81
2024/01/24 05:55:24;;;;;;;1999.90;999.90;;;11.30;99.90;;;;;;4939374;28;20104;-82
2024/01/24 05:57:50;;;;;;;1999.90;999.90;;;11.40;99.90;;;;;;4941134;28;20063;-81
2024/01/24 06:00:16;;;;;;;1999.90;999.90;;;11.40;99.90;;;;;;4939753;28;20040;-81
2024/01/24 06:02:43;;;;;;;1999.90;999.90;;;11.40;99.90;;;;;;4940130;29;20032;-81
2024/01/24 06:05:09;;;;;;;1999.90;999.90;;;11.40;99.90;;;;;;4939487;28;20036;-81
2024/01/24 06:07:34;;;;;;;1999.90;999.90;;;11.50;99.90;;;;;;4940039;28;20036;-81
2024/01/24 06:10:00;;;;;;;1999.90;999.90;;;11.50;99.90;;;;;;4942066;28;20040;-81
2024/01/24 06:12:26;;;;;;;1999.90;999.90;;;11.50;99.90;;;;;;4939800;28;20058;-82
2024/01/24 06:14:54;;;;;;;1999.90;999.90;;;11.50;99.90;;;;;;4940409;29;20048;-81
2024/01/24 06:17:19;;;;;;;1999.90;999.90;;;11.60;99.90;;;;;;4944896;28;20035;-82
2024/01/24 06:19:45;;;;;;;1999.90;999.90;;;11.70;99.90;;;;;;4961482;28;20059;-81
2024/01/24 06:22:11;;;;;;;1999.90;999.90;;;11.70;99.90;;;;;;4960778;28;20087;-82
2024/01/24 06:24:37;;;;;;;1999.90;999.90;;;11.70;99.90;;;;;;4961371;28;20402;-81
2024/01/24 06:27:03;;;;;;;1999.90;999.90;;;11.80;99.90;;;;;;4961659;28;20039;-82
2024/01/24 06:29:29;;;;;;;1999.90;999.90;;;11.80;99.90;;;;;;4961996;28;20434;-81
2024/01/24 06:31:55;;;;;;;1999.90;999.90;;;11.90;99.90;;;;;;4961764;28;20032;-82
2024/01/24 06:34:21;;;;;;;1999.90;999.90;;;12.00;99.90;;;;;;4960801;28;20115;-81
2024/01/24 06:36:47;;;;;;;1999.90;999.90;;;12.00;99.90;;;;;;4962401;28;20861;-81
2024/01/24 06:39:13;;;;;;;1999.90;999.90;;;12.20;99.90;;;;;;4963330;28;20044;-81
2024/01/24 06:41:38;;;;;;;1999.90;999.90;;;12.10;99.90;;;;;;4974204;28;20068;-81
2024/01/24 06:44:05;;;;;;;1999.90;999.90;;;12.10;99.90;;;;;;4968793;28;20078;-82
2024/01/24 06:46:31;;;;;;;1999.90;999.90;;;12.10;99.90;;;;;;4957848;28;20028;-81
2024/01/24 06:48:57;;;;;;;1999.90;999.90;;;12.00;99.90;;;;;;4957496;28;20040;-81
2024/01/24 06:51:23;;;;;;;1999.90;999.90;;;12.00;99.90;;;;;;4958427;28;20375;-82
2024/01/24 06:53:48;;;;;;;1999.90;999.90;;;11.90;99.90;;;;;;4958371;28;20486;-81
2024/01/24 06:56:14;;;;;;;1999.90;999.90;;;12.00;99.90;;;;;;4956041;28;20043;-81
2024/01/24 06:58:40;;;;;;;1999.90;999.90;;;12.00;99.90;;;;;;4955833;28;20035;-81
2024/01/24 07:01:06;;;;;;;1999.90;999.90;;;12.10;99.90;;;;;;4956891;28;20502;-81
2024/01/24 07:03:32;;;;;;;1999.90;999.90;;;12.20;99.90;;;;;;4960784;28;20041;-83
2024/01/24 07:05:58;;;;;;;1999.90;999.90;;;12.30;99.90;;;;;;4957125;28;20490;-80
2024/01/24 07:08:23;;;;;;;1999.90;999.90;;;12.30;99.90;;;;;;4957182;28;20082;-80
2024/01/24 07:10:49;;;;;;;1999.90;999.90;;;12.20;99.90;;;;;;4956898;28;20397;-83
2024/01/24 07:13:15;;;;;;;1999.90;999.90;;;12.30;99.90;;;;;;4955143;28;20052;-80
2024/01/24 07:15:42;;;;;;;1999.90;999.90;;;12.20;99.90;;;;;;4957087;28;20087;-85
2024/01/24 07:18:09;;;;;;;1999.90;999.90;;;12.10;99.90;;;;;;4955038;28;20185;-84
2024/01/24 07:20:34;;;;;;;1999.90;999.90;;;12.10;99.90;;;;;;4938022;29;20529;-85
2024/01/24 07:23:01;;;;;;;1999.90;999.90;;;12.30;99.90;;;;;;4949666;28;20043;-83
2024/01/24 07:25:27;;;;;;;1999.90;999.90;;;12.20;99.90;;;;;;4956783;28;20043;-84
2024/01/24 07:27:53;;;;;;;1999.90;999.90;;;12.10;99.90;;;;;;4955652;28;20031;-84
2024/01/24 07:30:19;;;;;;;1999.90;999.90;;;12.20;99.90;;;;;;4956677;28;20044;-84
2024/01/24 07:32:45;;;;;;;1999.90;999.90;;;12.20;99.90;;;;;;4956441;28;20945;-84
2024/01/24 07:35:10;;;;;;;1999.90;999.90;;;12.10;99.90;;;;;;4955434;28;20044;-87
2024/01/24 07:37:36;;;;;;;1999.90;999.90;;;12.20;99.90;;;;;;4955758;28;20027;-89
2024/01/24 07:40:02;;;;;;;1999.90;999.90;;;12.00;99.90;;;;;;4955681;28;20063;-86
2024/01/24 07:42:29;;;;;;;1999.90;999.90;;;12.20;99.90;;;;;;4955194;28;20035;-86
2024/01/24 07:44:55;;;;;;;1999.90;999.90;;;12.20;99.90;;;;;;4957281;28;20050;-85
2024/01/24 07:47:20;;;;;;;1999.90;999.90;;;12.30;99.90;;;;;;4956649;28;20042;-86
2024/01/24 07:49:46;;;;;;;1999.90;999.90;;;12.30;99.90;;;;;;4954902;28;20031;-85
2024/01/24 07:52:12;;;;;;;1999.90;999.90;;;12.30;99.90;;;;;;4954924;28;20035;-84
2024/01/24 07:54:37;;;;;;;1999.90;999.90;;;12.40;99.90;;;;;;4983068;23;20126;-84
2024/01/24 07:57:03;;;;;;;1999.90;999.90;;;12.40;99.90;;;;;;4976585;28;20046;-85
2024/01/24 07:59:30;;;;;;;1999.90;999.90;;;12.50;99.90;;;;;;4961362;28;20130;-85
2024/01/24 08:01:55;;;;;;;1999.90;999.90;;;12.50;99.90;;;;;;4954340;28;20032;-85
2024/01/24 08:04:21;;;;;;;1999.90;999.90;;;12.60;99.90;;;;;;4945450;28;20063;-85
2024/01/24 08:06:47;;;;;;;1999.90;999.90;;;12.60;99.90;;;;;;4939211;28;20493;-85
2024/01/24 08:09:13;;;;;;;1999.90;999.90;;;12.60;99.90;;;;;;4939319;29;20040;-85
2024/01/24 08:11:39;;;;;;;1999.90;999.90;;;12.80;99.90;;;;;;4940659;28;20115;-85
2024/01/24 08:14:05;;;;;;;1999.90;999.90;;;12.70;99.90;;;;;;4940036;28;20095;-85
2024/01/24 08:16:31;;;;;;;1999.90;999.90;;;12.60;99.90;;;;;;4938826;28;20079;-85
2024/01/24 08:18:58;;;;;;;1999.90;999.90;;;12.70;99.90;;;;;;4939411;28;20171;-84
2024/01/24 08:21:24;;;;;;;1999.90;999.90;;;12.80;99.90;;;;;;4939146;28;20044;-84
2024/01/24 08:23:49;;;;;;;1999.90;999.90;;;12.70;99.90;;;;;;4938779;28;20063;-84
2024/01/24 08:26:15;;;;;;;1999.90;999.90;;;12.80;99.90;;;;;;4938660;28;20494;-85
2024/01/24 08:28:42;;;;;;;1999.90;999.90;;;12.90;99.90;;;;;;4938981;28;20028;-84
2024/01/24 08:31:09;;;;;;;1999.90;999.90;;;12.90;99.90;;;;;;4938474;28;20040;-85
2024/01/24 08:33:34;;;;;;;1999.90;999.90;;;13.00;99.90;;;;;;4938563;28;20119;-85
2024/01/24 08:36:00;;;;;;;1999.90;999.90;;;13.00;99.90;;;;;;4938682;28;20119;-84
2024/01/24 08:38:26;;;;;;;1999.90;999.90;;;13.00;99.90;;;;;;4940100;28;20084;-84
2024/01/24 08:40:51;;;;;;;1999.90;999.90;;;13.00;99.90;;;;;;4938439;28;20040;-84
2024/01/24 08:43:17;;;;;;;1999.90;999.90;;;13.00;99.90;;;;;;4938102;28;20447;-85
2024/01/24 08:45:43;;;;;;;1999.90;999.90;;;13.00;99.90;;;;;;4940333;28;20107;-86
2024/01/24 08:48:08;;;;;;;1999.90;999.90;;;13.30;99.90;;;;;;4958556;28;20087;-87
2024/01/24 08:50:34;;;;;;;1999.90;999.90;;;13.10;99.90;;;;;;4957314;28;20062;-86
2024/01/24 08:53:00;;;;;;;1999.90;999.90;;;13.40;99.90;;;;;;4957944;28;20083;-87
2024/01/24 08:55:25;;;;;;;1999.90;999.90;;;13.30;99.90;;;;;;4958927;28;20038;-86
2024/01/24 08:57:51;;;;;;;1999.90;999.90;;;13.20;99.90;;;;;;4958363;28;20039;-86
2024/01/24 09:00:17;;;;;;;1999.90;999.90;;;13.20;99.90;;;;;;4959331;28;20048;-85
2024/01/24 09:02:42;;;;;;;1999.90;999.90;;;13.30;99.90;;;;;;4957923;28;20116;-88
2024/01/24 09:05:08;;;;;;;1999.90;999.90;;;13.30;99.90;;;;;;4957330;28;20071;-88
2024/01/24 09:07:35;;;;;;;1999.90;999.90;;;13.30;99.90;;;;;;4957416;28;20036;-87
2024/01/24 09:10:02;;;;;;;1999.90;999.90;;;13.30;99.90;;;;;;4957364;28;20040;-87
2024/01/24 09:12:27;;;;;;;1999.90;999.90;;;13.30;99.90;;;;;;4956927;28;20072;-85
2024/01/24 09:14:53;;;;;;;1999.90;999.90;;;13.30;99.90;;;;;;4956045;28;20071;-87
2024/01/24 09:17:19;;;;;;;1999.90;999.90;;;13.10;99.90;;;;;;4957235;28;20032;-86
2024/01/24 09:19:44;;;;;;;1999.90;999.90;;;13.20;99.90;;;;;;4957319;28;20039;-87
2024/01/24 09:22:10;;;;;;;1999.90;999.90;;;13.20;99.90;;;;;;4952313;28;20498;-87
2024/01/24 09:24:36;;;;;;;1999.90;999.90;;;13.20;99.90;;;;;;4937731;28;20036;-87
2024/01/24 09:27:03;;;;;;;1999.90;999.90;;;13.20;99.90;;;;;;4937909;28;20039;-88
2024/01/24 09:29:29;;;;;;;1999.90;999.90;;;12.90;99.90;;;;;;4937692;29;20557;-88
2024/01/24 09:31:54;;;;;;;1999.90;999.90;;;12.40;99.90;;;;;;4937378;29;20115;-87
2024/01/24 09:34:20;;;;;;;1999.90;999.90;;;12.40;99.90;;;;;;4937456;28;20028;-87
2024/01/24 09:36:46;;;;;;;1999.90;999.90;;;12.10;99.90;;;;;;4937558;28;20032;-87
2024/01/24 09:39:12;;;;;;;1999.90;999.90;;;11.90;99.90;;;;;;4938002;28;20039;-88
2024/01/24 09:41:42;;;;;;;1999.90;999.90;;;11.80;99.90;;;;;;4938090;28;20044;-87
2024/01/24 09:44:14;;;;;;;1999.90;999.90;;;11.70;99.90;;;;;;4938453;28;20035;-88
2024/01/24 09:46:45;;;;;;;1999.90;999.90;;;11.60;99.90;;;;;;4938779;28;20040;-88
2024/01/24 09:49:11;;;;;;;1999.90;999.90;;;11.70;99.90;;;;;;4939543;28;20040;-87
2024/01/24 09:51:37;;;;;;;1999.90;999.90;;;11.50;99.90;;;;;;4937669;28;20041;-87
2024/01/24 09:54:07;;;;;;;1999.90;999.90;;;11.50;99.90;;;;;;4937469;28;20068;-87
2024/01/24 09:56:35;;;;;;;1999.90;999.90;;;11.50;99.90;;;;;;4937722;28;20128;-87
2024/01/24 09:59:02;;;;;;;1999.90;999.90;;;11.40;99.90;;;;;;4937444;28;20079;-86
2024/01/24 10:01:31;;;;;;;1999.90;999.90;;;11.40;99.90;;;;;;4937486;28;20559;-87
2024/01/24 10:03:59;;;;;;;1999.90;999.90;;;11.40;99.90;;;;;;4938598;28;20476;-90
2024/01/24 10:06:25;;;;;;;1999.90;999.90;;;11.40;99.90;;;;;;4937691;28;20153;-88
2024/01/24 10:08:51;;;;;;;1999.90;999.90;;;11.30;99.90;;;;;;4937750;28;20565;-89
2024/01/24 10:11:17;;;;;;;1999.90;999.90;;;11.30;99.90;;;;;;4938281;28;20044;-89
2024/01/24 10:13:43;;;;;;;1999.90;999.90;;;11.30;99.90;;;;;;4937257;28;20039;-89
2024/01/24 10:16:09;;;;;;;1999.90;999.90;;;11.30;99.90;;;;;;4937411;28;20039;-89
2024/01/24 10:18:35;;;;;;;1999.90;999.90;;;11.40;99.90;;;;;;4937112;28;20071;-88
2024/01/24 10:21:04;;;;;;;1999.90;999.90;;;11.30;99.90;;;;;;4936873;28;20067;-88
2024/01/24 10:23:30;;;;;;;1999.90;999.90;;;11.20;99.90;;;;;;4937216;29;20039;-88
2024/01/24 10:25:57;;;;;;;1999.90;999.90;;;11.30;99.90;;;;;;4937193;29;20028;-88
2024/01/24 10:28:23;;;;;;;1999.90;999.90;;;11.30;99.90;;;;;;4937084;29;20043;-88
2024/01/24 10:30:49;;;;;;;1999.90;999.90;;;11.20;99.90;;;;;;4936749;28;20040;-88
2024/01/24 10:33:15;;;;;;;1999.90;999.90;;;11.20;99.90;;;;;;4937017;28;20039;-88
2024/01/24 10:35:42;;;;;;;1999.90;999.90;;;11.20;99.90;;;;;;4937897;28;20107;-87
2024/01/24 10:38:12;;;;;;;1999.90;999.90;;;11.30;99.90;;;;;;4936997;28;20032;-88
2024/01/24 10:40:41;;;;;;;1999.90;999.90;;;11.30;99.90;;;;;;4936506;29;20048;-88
2024/01/24 10:43:14;;;;;;;1999.90;999.90;;;11.20;99.90;;;;;;4937554;28;20550;-87
2024/01/24 10:45:48;;;;;;;1999.90;999.90;;;11.30;99.90;;;;;;4936608;28;20036;-87
2024/01/24 10:48:15;;;;;;;1999.90;999.90;;;11.30;99.90;;;;;;4936706;28;20088;-87
2024/01/24 10:50:42;;;;;;;1999.90;999.90;;;11.10;99.90;;;;;;4936427;29;20044;-87
2024/01/24 10:53:12;;;;;;;1999.90;999.90;;;11.10;99.90;;;;;;4936154;28;20036;-86
2024/01/24 10:55:39;;;;;;;1999.90;999.90;;;11.30;99.90;;;;;;4936574;29;20043;-87
2024/01/24 10:58:05;;;;;;;1999.90;999.90;;;11.30;99.90;;;;;;4936271;28;20032;-87
2024/01/24 11:00:32;;;;;;;1999.90;999.90;;;11.40;99.90;;;;;;4936219;28;20132;-86
2024/01/24 11:02:59;;;;;;;1999.90;999.90;;;11.40;99.90;;;;;;4935694;28;20076;-85
2024/01/24 11:05:39;;;;;;;1999.90;999.90;;;11.40;99.90;;;;;;4937704;28;20044;-87
2024/01/24 11:08:10;;;;;;;1999.90;999.90;;;11.20;99.90;;;;;;4936275;28;20116;-87
2024/01/24 11:10:39;;;;;;;1999.90;999.90;;;11.20;99.90;;;;;;4936133;28;20082;-86
2024/01/24 11:13:06;;;;;;;1999.90;999.90;;;11.20;99.90;;;;;;4935730;29;20032;-89
2024/01/24 11:15:32;;;;;;;1999.90;999.90;;;11.20;99.90;;;;;;4936058;28;20520;-88
2024/01/24 11:18:28;;;;;;;1999.90;999.90;;;11.50;99.90;;;;;;4935720;28;20119;-87
2024/01/24 11:20:56;;;;;;;1999.90;999.90;;;11.50;99.90;;;;;;4936083;28;20096;-88
2024/01/24 11:23:46;;;;;;;1999.90;999.90;;;11.60;99.90;;;;;;4935473;28;20032;-89
2024/01/24 11:26:32;;;;;;;1999.90;999.90;;;11.80;99.90;;;;;;4936281;28;20044;-89
2024/01/24 11:29:10;;;;;;;1999.90;999.90;;;11.90;99.90;;;;;;4935477;29;20168;-89
2024/01/24 11:31:40;;;;;;;1999.90;999.90;;;11.90;99.90;;;;;;4935509;29;20138;-88
2024/01/24 11:34:15;;;;;;;1999.90;999.90;;;12.10;99.90;;;;;;4935672;29;20056;-89
2024/01/24 11:37:05;;;;;;;1999.90;999.90;;;12.10;99.90;;;;;;4935915;28;20510;-89
2024/01/24 11:39:30;;;;;;;1999.90;999.90;;;12.20;99.90;;;;;;4938008;29;20082;-89
2024/01/24 11:42:24;;;;;;;1999.90;999.90;;;12.30;99.90;;;;;;4938182;28;20441;-89
2024/01/24 11:44:52;;;;;;;1999.90;999.90;;;12.30;99.90;;;;;;4938120;28;20032;-89
2024/01/24 11:47:17;;;;;;;1999.90;999.90;;;12.50;99.90;;;;;;4938313;28;20504;-85
2024/01/24 11:49:48;;;;;;;1999.90;999.90;;;12.60;99.90;;;;;;4939023;28;20046;-86
2024/01/24 11:52:20;;;;;;;1999.90;999.90;;;12.70;99.90;;;;;;4938673;28;20092;-87
2024/01/24 11:54:52;;;;;;;1999.90;999.90;;;12.60;99.90;;;;;;4938249;28;20044;-85
2024/01/24 11:57:17;;;;;;;1999.90;999.90;;;12.70;99.90;;;;;;4938938;28;20039;-85